Portada
METAR-TAF:

METAR-TAF

Aeroports :

Aeroport d'Oujda-Angads

Oujda, Marroc

latitud: 34-47N, longitud: 001-56W, altitud: 468 m

Observació

L'informe es va fer fa 30 minuts, a les 05:30 UTC
Vent 13 kt del Sud/Sud-Oest
Temperatura 24°C
Humitat 44%
Pressió 1015 hPa
Visibilitat 10 km o més
Escasses núvols a una alçada de 3000 ft
Cel ennuvolat a una alçada de 10000 ft

METAR: GMFO 140530Z 20013KT 9999 FEW030 BKN100 24/11 Q1015 NOSIG

Hora: 07:00 (06:00 UTC)

Pronòstic

L'informe es va fer fa 1 hora i 0 minuts, a les 05:00 UTC
Pronòstic vàlid del 14 a les 06 UTC al 15 a les 12 UTC
Vent 12 kt del Sud/Sud-Oest
Visibilitat 10 km o més
Escasses núvols a una alçada de 2600 ft
Cel ennuvolat a una alçada de 10000 ft
Evolucionant progressivament
l' 14 a les 16 UTC al 14 a les 20 UTC
Vent 16 kt del Nord/Nord-Oest
Núvols disperses a una alçada de 3000 ft

TAF: GMFO 140500Z 1406/1512 20012KT 9999 FEW026 BKN100 BECMG 1416/1420 34016KT SCT030

Observacions i pronòstics meteorològics de més de 4000 aeroports (METAR i TAF).

Les estacions disponibles són els punts grocs i vermells al mapa.

Posi el ratolí al punt desitjat per veure el nom de l'estació.

Feu clic per veure les observacions i els pronòstics meteorològics.

Per canviar el mapa: feu clic els botons verds amb una creu de color negre per apropar; al botó verd amb un guió per allunyar la imatge; o en les fletxes verdes per a mapes adjacents.


METAR-TAF: